Time;durP1;ratioP1;P1;durP2;ratioP2;P2;SDS_P1;SDS_P2;PMS_P1;PMS_P2;Temp;Humidity;BMP_temperature;BMP_pressure;BME280_temperature;BME280_humidity;BME280_pressure;Samples;Min_cycle;Max_cycle;Signal;HPM_P1;HPM_P2
2021/12/20 00:00:51;;;;;;;9.75;7.15;;;;;;;18.18;58.46;99022.91;3127997;28;20056;-67
2021/12/20 00:02:23;;;;;;;9.75;7.53;;;;;;;18.17;58.54;99021.25;3128476;28;20049;-67
2021/12/20 00:03:55;;;;;;;9.10;7.20;;;;;;;18.17;58.36;99015.91;3126017;28;20056;-67
2021/12/20 00:05:27;;;;;;;9.55;6.75;;;;;;;18.16;58.52;99016.91;3125551;28;20084;-68
2021/12/20 00:06:58;;;;;;;8.77;7.57;;;;;;;18.14;58.37;99022.47;3128092;28;20048;-69
2021/12/20 00:08:29;;;;;;;7.97;6.82;;;;;;;18.13;58.38;99019.97;3129556;28;20506;-68
2021/12/20 00:10:01;;;;;;;7.85;6.20;;;;;;;18.11;58.53;99019.31;3131314;28;20809;-68
2021/12/20 00:11:33;;;;;;;8.55;6.38;;;;;;;18.11;58.58;99022.00;3127735;28;20623;-69
2021/12/20 00:13:07;;;;;;;7.82;5.88;;;;;;;18.10;58.44;99018.50;3128113;28;20048;-67
2021/12/20 00:14:38;;;;;;;8.02;6.38;;;;;;;18.11;58.37;99019.31;3129010;28;20041;-66
2021/12/20 00:16:09;;;;;;;9.30;7.27;;;;;;;18.12;58.44;99015.63;3128797;28;20513;-68
2021/12/20 00:17:41;;;;;;;6.82;5.93;;;;;;;18.14;58.41;99022.47;3128813;28;20484;-67
2021/12/20 00:19:12;;;;;;;9.27;6.75;;;;;;;18.17;58.18;99018.56;3129088;28;20055;-69
2021/12/20 00:20:44;;;;;;;10.57;7.37;;;;;;;18.20;58.41;99020.88;3126262;28;20703;-69
2021/12/20 00:22:15;;;;;;;;;;;;;;;18.22;58.41;99016.97;3129625;28;20055;-68
2021/12/20 00:23:47;;;;;;;9.98;6.85;;;;;;;18.25;58.30;99011.22;3128938;28;20285;-68
2021/12/20 00:25:19;;;;;;;;;;;;;;;18.28;58.20;99012.69;3129239;28;20147;-68
2021/12/20 00:26:50;;;;;;;7.55;5.97;;;;;;;18.30;58.17;99007.94;3129443;28;19928;-67
2021/12/20 00:28:23;;;;;;;;;;;;;;;18.30;58.39;99007.94;3129847;28;20918;-68
2021/12/20 00:29:55;;;;;;;8.00;6.53;;;;;;;18.31;58.01;98996.19;3128991;28;19931;-67
2021/12/20 00:31:27;;;;;;;9.25;6.18;;;;;;;18.34;58.29;99005.72;3126520;28;20136;-69
2021/12/20 00:32:58;;;;;;;7.43;6.10;;;;;;;18.32;58.17;99003.22;3129553;28;20057;-68
2021/12/20 00:34:30;;;;;;;;;;;;;;;18.33;58.13;99010.28;3127818;28;20726;-68
2021/12/20 00:36:02;;;;;;;8.43;6.32;;;;;;;18.31;58.34;99001.56;3130187;28;19948;-67
2021/12/20 00:41:14;;;;;;;9.82;6.85;;;;;;;18.33;58.04;99004.03;3129891;28;20036;-68
2021/12/20 00:42:46;;;;;;;7.72;6.47;;;;;;;18.33;58.08;98998.66;3129789;28;20131;-69
2021/12/20 00:44:19;;;;;;;9.32;6.88;;;;;;;18.32;58.24;99005.91;3129424;28;20056;-67
2021/12/20 00:45:51;;;;;;;8.30;6.68;;;;;;;18.31;58.06;99001.56;3126419;28;20420;-69
2021/12/20 00:47:23;;;;;;;7.22;5.53;;;;;;;18.30;58.32;99000.75;3126768;28;20399;-67
2021/12/20 00:48:55;;;;;;;6.57;5.78;;;;;;;18.30;58.19;99000.75;3129875;28;20053;-69
2021/12/20 00:50:27;;;;;;;;;;;;;;;18.28;58.13;99001.97;3129417;28;20040;-67
2021/12/20 00:51:58;;;;;;;8.45;5.80;;;;;;;18.28;58.22;99000.09;3129857;28;19920;-66
2021/12/20 00:53:30;;;;;;;7.57;5.85;;;;;;;18.28;58.23;98996.59;3131089;28;20045;-68
2021/12/20 00:55:02;;;;;;;8.13;6.00;;;;;;;18.28;58.22;99001.97;3128348;28;20051;-68
2021/12/20 00:56:34;;;;;;;6.78;5.55;;;;;;;18.28;58.28;99004.63;3131696;28;20053;-67
2021/12/20 00:58:06;;;;;;;9.38;6.47;;;;;;;18.26;58.14;99004.81;3133003;28;20080;-68
2021/12/20 00:59:39;;;;;;;6.10;5.13;;;;;;;18.24;58.45;99001.47;3130492;28;20098;-68
2021/12/20 01:01:11;;;;;;;8.25;6.35;;;;;;;18.23;58.24;99009.75;3129776;28;20282;-68
2021/12/20 01:02:43;;;;;;;7.72;5.78;;;;;;;18.23;58.46;99001.69;3129801;28;20167;-69
2021/12/20 01:04:15;;;;;;;8.88;6.00;;;;;;;18.22;58.19;99000.88;3131132;28;20135;-67
2021/12/20 01:05:47;;;;;;;8.18;6.13;;;;;;;18.22;58.33;98997.31;3122912;28;20052;-68
2021/12/20 01:07:19;;;;;;;7.78;5.78;;;;;;;18.21;58.26;98984.94;3129709;28;20705;-69
2021/12/20 01:08:52;;;;;;;6.05;4.65;;;;;;;18.21;58.42;98984.94;3131243;28;20055;-69
2021/12/20 01:10:24;;;;;;;7.30;5.40;;;;;;;18.18;58.34;98983.47;3131039;28;20090;-68
2021/12/20 01:12:02;;;;;;;7.75;5.60;;;;;;;18.18;58.24;98988.00;3128566;28;20114;-68
2021/12/20 01:13:39;;;;;;;8.65;5.95;;;;;;;18.15;58.47;98980.34;3132433;28;20059;-69
2021/12/20 01:15:17;;;;;;;7.78;5.90;;;;;;;18.15;58.28;98980.34;3130958;28;20124;-68
2021/12/20 01:16:48;;;;;;;7.63;5.53;;;;;;;18.13;58.51;98979.69;3131218;28;20540;-67
2021/12/20 01:18:21;;;;;;;7.05;6.10;;;;;;;18.11;58.63;98979.06;3132115;28;20643;-68
2021/12/20 01:19:53;;;;;;;9.02;6.38;;;;;;;18.11;58.47;98979.91;3129019;28;20410;-68
2021/12/20 01:21:25;;;;;;;8.15;5.53;;;;;;;18.09;58.37;98980.09;3130653;28;20044;-68
2021/12/20 01:22:58;;;;;;;8.77;6.35;;;;;;;18.08;58.36;98977.59;3132232;28;20115;-67
2021/12/20 01:24:30;;;;;;;7.47;5.32;;;;;;;18.12;58.22;98980.72;3123574;28;20055;-66
2021/12/20 01:26:02;;;;;;;8.25;6.35;;;;;;;18.14;58.29;98984.06;3130570;28;20079;-67
2021/12/20 01:27:33;;;;;;;7.90;6.25;;;;;;;18.14;58.49;98984.88;3130405;28;20044;-66
2021/12/20 01:29:05;;;;;;;7.55;5.70;;;;;;;18.14;58.34;98978.69;3132914;28;20164;-68
2021/12/20 01:30:40;;;;;;;9.27;5.90;;;;;;;18.12;58.27;98978.88;3131858;28;20627;-68
2021/12/20 01:32:11;;;;;;;7.05;5.35;;;;;;;18.14;58.24;98973.31;3130732;28;20772;-68
2021/12/20 01:33:43;;;;;;;6.25;5.55;;;;;;;18.12;58.39;98978.06;3128622;28;20053;-69
2021/12/20 01:35:15;;;;;;;7.45;5.65;;;;;;;18.12;58.36;98975.38;3128702;28;20049;-68
2021/12/20 01:36:47;;;;;;;6.85;5.82;;;;;;;18.11;58.46;98971.00;3130459;28;20147;-68
2021/12/20 01:38:18;;;;;;;6.95;5.90;;;;;;;18.07;58.29;98976.75;3131198;28;20135;-68
2021/12/20 01:39:50;;;;;;;;;;;;;;;18.07;58.57;98979.44;3131751;28;20750;-68
2021/12/20 01:41:22;;;;;;;7.70;6.60;;;;;;;18.07;58.58;98965.19;3126377;28;19932;-65
2021/12/20 01:42:55;;;;;;;7.45;5.20;;;;;;;18.07;58.51;98971.38;3124606;28;20068;-68
2021/12/20 01:44:27;;;;;;;8.90;5.57;;;;;;;18.09;58.41;98971.22;3129857;28;20045;-68
2021/12/20 01:46:01;;;;;;;7.55;5.63;;;;;;;18.07;58.34;98974.06;3130294;28;20053;-67
2021/12/20 01:47:36;;;;;;;7.60;5.63;;;;;;;18.08;58.26;98969.56;3128371;28;20135;-67
2021/12/20 01:49:11;;;;;;;8.13;5.32;;;;;;;18.08;58.49;98975.75;3129656;28;20521;-67
2021/12/20 01:51:11;;;;;;;7.95;5.32;;;;;;;18.08;58.51;98972.25;3131789;28;20110;-68
2021/12/20 01:52:43;;;;;;;6.50;5.30;;;;;;;18.05;58.38;98970.78;3129208;28;20114;-66
2021/12/20 01:54:15;;;;;;;7.00;4.80;;;;;;;18.04;58.29;98958.34;3130515;28;20140;-69
2021/12/20 01:55:47;;;;;;;6.65;5.05;;;;;;;18.04;58.39;98952.16;3130370;28;20409;-68
2021/12/20 01:57:21;;;;;;;8.90;6.15;;;;;;;18.03;58.61;98950.50;3130207;28;20047;-68
2021/12/20 01:59:00;;;;;;;7.70;5.45;;;;;;;18.01;58.47;98957.91;3131300;28;20608;-68
2021/12/20 02:00:31;;;;;;;6.97;5.25;;;;;;;18.02;58.39;98952.34;3126792;28;20052;-67
2021/12/20 02:02:04;;;;;;;6.75;5.88;;;;;;;18.02;58.46;98954.19;3130998;28;20056;-68
2021/12/20 02:03:38;;;;;;;7.80;5.70;;;;;;;18.04;58.47;98949.47;3127835;28;20430;-66
2021/12/20 02:05:18;;;;;;;7.30;5.75;;;;;;;18.04;58.42;98944.94;3123162;28;20053;-66
2021/12/20 02:06:50;;;;;;;6.20;5.18;;;;;;;18.08;58.33;98956.97;3130426;28;20088;-68
2021/12/20 02:08:23;;;;;;;5.78;4.93;;;;;;;18.10;58.41;98951.38;3126086;28;20083;-68
2021/12/20 02:09:55;;;;;;;6.72;5.45;;;;;;;18.15;58.14;98956.19;3131426;28;20053;-69
2021/12/20 02:11:27;;;;;;;6.70;5.50;;;;;;;18.18;58.22;98953.94;3129572;28;20053;-68
2021/12/20 02:12:59;;;;;;;5.90;4.70;;;;;;;18.22;58.19;98946.31;3131817;28;20045;-69
2021/12/20 02:14:31;;;;;;;7.45;5.57;;;;;;;18.23;58.08;98946.13;3129278;28;20616;-69
2021/12/20 02:16:04;;;;;;;8.50;5.82;;;;;;;18.24;57.91;98946.97;3131638;28;20052;-68
2021/12/20 02:17:37;;;;;;;6.03;4.93;;;;;;;18.26;58.18;98942.25;3128168;28;20411;-67
2021/12/20 02:19:11;;;;;;;7.07;5.30;;;;;;;18.27;58.02;98936.66;3130912;28;20176;-67
2021/12/20 02:20:44;;;;;;;6.28;4.25;;;;;;;18.27;58.00;98935.84;3129722;28;20640;-67
2021/12/20 02:22:18;;;;;;;6.00;5.40;;;;;;;18.28;58.14;98935.66;3130089;28;20049;-66
2021/12/20 02:23:51;;;;;;;6.70;5.10;;;;;;;18.29;58.00;98939.16;3129607;28;20048;-67
2021/12/20 02:25:23;;;;;;;7.22;4.95;;;;;;;18.31;58.22;98931.75;3127140;28;20045;-66
2021/12/20 02:26:54;;;;;;;6.65;4.82;;;;;;;18.30;57.94;98930.06;3131345;28;20083;-68
2021/12/20 02:28:25;;;;;;;6.43;4.72;;;;;;;18.30;57.76;98933.63;3130040;28;20053;-67
2021/12/20 02:30:05;;;;;;;4.75;4.05;;;;;;;18.31;57.92;98926.38;3130902;28;20045;-67
2021/12/20 02:37:26;;;;;;;6.75;4.25;;;;;;;18.30;58.29;98930.06;3116132;28;20519;-69
2021/12/20 02:38:58;;;;;;;6.28;4.63;;;;;;;18.28;58.09;98930.28;3117974;28;20045;-69
2021/12/20 02:40:29;;;;;;;;;;;;;;;18.27;58.25;98925.09;3118516;28;20069;-68
2021/12/20 02:42:01;;;;;;;5.80;4.70;;;;;;;18.28;58.04;98926.78;3116571;28;20048;-69
2021/12/20 02:43:36;;;;;;;;;;;;;;;18.26;58.15;98928.81;3114597;28;20083;-67
2021/12/20 02:45:14;;;;;;;6.57;4.43;;;;;;;18.23;57.99;98919.28;3116384;28;19929;-67
2021/12/20 02:46:51;;;;;;;5.57;4.43;;;;;;;18.26;58.12;98920.75;3117902;28;20103;-68
2021/12/20 02:48:22;;;;;;;6.57;5.47;;;;;;;18.25;58.10;98927.16;3117287;28;20045;-68
2021/12/20 02:49:53;;;;;;;6.70;5.22;;;;;;;18.24;58.23;98926.31;3117120;28;20053;-67
2021/12/20 02:51:26;;;;;;;6.07;4.70;;;;;;;18.23;58.17;98919.28;3116944;28;21070;-69
2021/12/20 02:52:59;;;;;;;6.50;4.63;;;;;;;18.22;58.15;98920.31;3117014;28;20049;-67
2021/12/20 02:54:32;;;;;;;5.70;5.13;;;;;;;18.22;58.21;98916.78;3114812;28;20179;-69
2021/12/20 02:56:04;;;;;;;4.80;4.30;;;;;;;18.22;58.14;98911.41;3117203;28;20076;-67
2021/12/20 02:57:36;;;;;;;6.32;4.70;;;;;;;18.19;58.24;98904.59;3117375;28;20046;-68
2021/12/20 02:59:07;;;;;;;7.07;4.95;;;;;;;18.18;58.07;98910.16;3117451;28;20044;-68
2021/12/20 03:00:39;;;;;;;5.38;4.13;;;;;;;18.18;58.25;98907.47;3116779;28;20056;-69
2021/12/20 03:02:12;;;;;;;5.35;4.05;;;;;;;18.16;58.29;98906.81;3114678;28;20052;-67
2021/12/20 03:03:44;;;;;;;5.63;4.43;;;;;;;18.16;58.23;98906.81;3116103;28;20069;-67
2021/12/20 03:05:16;;;;;;;5.85;4.65;;;;;;;18.14;58.09;98901.66;3117302;28;20140;-68
2021/12/20 03:06:49;;;;;;;5.05;4.50;;;;;;;18.14;58.29;98896.31;3119116;28;20132;-67
2021/12/20 03:08:24;;;;;;;5.97;4.50;;;;;;;18.12;58.09;98890.28;3117194;28;20124;-67
2021/12/20 03:10:01;;;;;;;5.80;4.85;;;;;;;18.12;58.33;98889.47;3129748;28;20528;-68
2021/12/20 03:11:35;;;;;;;5.97;4.57;;;;;;;18.09;58.39;98894.19;3126906;28;20514;-67
2021/12/20 03:13:06;;;;;;;5.63;4.15;;;;;;;18.08;58.23;98889.84;3129793;28;20052;-68
2021/12/20 03:14:41;;;;;;;5.43;4.65;;;;;;;18.08;58.38;98894.41;3128548;28;20040;-67
2021/12/20 03:16:13;;;;;;;6.10;4.63;;;;;;;18.08;58.24;98887.16;3129279;28;20160;-68
2021/12/20 03:17:45;;;;;;;4.22;3.65;;;;;;;18.10;58.30;98884.28;3130205;28;20049;-68
2021/12/20 03:19:15;;;;;;;5.50;4.45;;;;;;;18.10;58.20;98886.97;3131594;28;20160;-68
2021/12/20 03:20:47;;;;;;;5.70;4.60;;;;;;;18.11;58.12;98888.63;3128489;28;20060;-68
2021/12/20 03:22:19;;;;;;;6.03;4.70;;;;;;;18.09;58.29;98893.38;3121143;28;20341;-68
2021/12/20 03:23:51;;;;;;;5.68;4.22;;;;;;;18.11;58.47;98883.28;3129231;28;20052;-69
2021/12/20 03:25:23;;;;;;;5.40;4.07;;;;;;;18.11;58.13;98885.09;3128027;28;20057;-68
2021/12/20 03:26:55;;;;;;;4.57;3.70;;;;;;;18.10;58.15;98884.28;3131436;28;20456;-69
2021/12/20 03:28:27;;;;;;;4.70;3.90;;;;;;;18.09;58.19;98888.81;3129820;28;20053;-69
2021/12/20 03:29:59;;;;;;;6.72;5.18;;;;;;;18.08;58.33;98886.34;3128874;28;20806;-69
2021/12/20 03:31:30;;;;;;;4.32;3.72;;;;;;;18.07;58.36;98882.81;3129204;28;20155;-68
2021/12/20 03:33:02;;;;;;;5.78;5.15;;;;;;;18.08;58.36;98884.50;3129557;28;20543;-69
2021/12/20 03:34:33;;;;;;;6.20;4.35;;;;;;;18.06;58.26;98875.78;3129165;28;20571;-67
2021/12/20 03:36:05;;;;;;;4.53;3.90;;;;;;;18.07;58.25;98871.25;3129651;28;20048;-67
2021/12/20 03:37:37;;;;;;;4.80;4.13;;;;;;;18.05;58.33;98871.47;3129007;28;20055;-68
2021/12/20 03:39:10;;;;;;;5.80;4.15;;;;;;;18.04;58.22;98869.78;3121523;28;20049;-67
2021/12/20 03:40:42;;;;;;;4.97;3.95;;;;;;;18.06;58.15;98869.59;3127313;28;20469;-69
2021/12/20 03:42:14;;;;;;;4.53;3.90;;;;;;;18.07;58.17;98876.63;3126850;28;20136;-68
2021/12/20 03:43:45;;;;;;;6.07;4.80;;;;;;;18.06;58.31;98875.78;3131459;28;20102;-69
2021/12/20 03:45:17;;;;;;;5.80;4.18;;;;;;;18.06;58.17;98872.28;3129924;28;20053;-69
2021/12/20 03:46:48;;;;;;;5.63;4.57;;;;;;;18.07;58.29;98872.06;3128345;28;20044;-69
2021/12/20 03:48:20;;;;;;;5.05;4.28;;;;;;;18.07;58.16;98877.44;3127680;28;20463;-68
2021/12/20 03:49:51;;;;;;;;;;;;;;;18.05;58.23;98876.81;3129958;28;20121;-69
2021/12/20 03:51:23;;;;;;;4.03;3.60;;;;;;;18.05;58.25;98871.47;3129547;28;19920;-67
2021/12/20 03:52:55;;;;;;;5.80;4.03;;;;;;;18.06;58.21;98870.41;3131048;28;20052;-69
2021/12/20 03:54:28;;;;;;;;;;;;;;;18.04;58.31;98867.09;3131070;28;20049;-69
2021/12/20 03:56:00;;;;;;;7.53;4.68;;;;;;;18.05;58.27;98867.91;3127836;28;20412;-68
2021/12/20 03:57:32;;;;;;;5.63;3.78;;;;;;;18.04;58.25;98867.09;3128283;28;20627;-67
2021/12/20 03:59:04;;;;;;;5.53;4.18;;;;;;;18.03;58.19;98870.81;3124958;28;20052;-69
2021/12/20 04:00:36;;;;;;;6.35;4.38;;;;;;;18.04;58.22;98861.72;3128012;28;20082;-68
2021/12/20 04:02:08;;;;;;;4.78;4.22;;;;;;;18.05;58.32;98866.09;3129872;28;20051;-66
2021/12/20 04:03:40;;;;;;;4.90;3.58;;;;;;;18.06;58.11;98862.38;3128839;28;20136;-69
2021/12/20 04:05:14;;;;;;;4.40;4.00;;;;;;;18.07;58.31;98857.81;3125557;28;20053;-69
2021/12/20 04:06:45;;;;;;;5.22;4.00;;;;;;;18.08;58.36;98863.00;3129435;28;20055;-69
2021/12/20 04:08:17;;;;;;;;;;;;;;;18.08;58.19;98852.28;3127474;28;20077;-67
2021/12/20 04:09:50;;;;;;;3.30;3.00;;;;;;;18.08;58.14;98856.81;3128427;28;19927;-68
2021/12/20 04:11:22;;;;;;;3.88;3.17;;;;;;;18.07;58.33;98860.50;3128388;28;20053;-67
2021/12/20 04:12:54;;;;;;;4.25;3.67;;;;;;;18.07;58.08;98847.91;3128442;28;20409;-68
2021/12/20 04:14:26;;;;;;;5.43;4.38;;;;;;;18.07;58.03;98855.97;3129595;28;20087;-68
2021/12/20 04:15:58;;;;;;;4.63;3.83;;;;;;;18.07;58.18;98852.47;3124978;28;20147;-68
2021/12/20 04:17:28;;;;;;;4.20;3.72;;;;;;;18.08;58.12;98859.50;3129226;28;20122;-68
2021/12/20 04:19:00;;;;;;;5.23;4.07;;;;;;;18.06;58.14;98848.94;3129868;28;20110;-69
2021/12/20 04:20:32;;;;;;;4.45;3.78;;;;;;;18.07;58.24;98855.13;3127621;28;20075;-68
2021/12/20 04:22:04;;;;;;;5.15;3.78;;;;;;;18.06;58.16;98848.94;3128443;28;20052;-69
2021/12/20 04:23:36;;;;;;;4.07;3.47;;;;;;;18.07;58.18;98842.53;3127478;28;20715;-67
2021/12/20 04:25:10;;;;;;;3.45;3.15;;;;;;;18.05;58.24;98839.25;3130343;28;20164;-68
2021/12/20 04:26:42;;;;;;;5.45;4.18;;;;;;;18.04;58.26;98840.25;3129783;28;20053;-68
2021/12/20 04:28:13;;;;;;;4.32;3.47;;;;;;;18.04;58.27;98842.94;3131385;28;20124;-68
2021/12/20 04:29:44;;;;;;;3.45;3.03;;;;;;;18.03;58.34;98848.53;3130347;28;20057;-68
2021/12/20 04:31:16;;;;;;;3.85;3.45;;;;;;;18.03;58.31;98845.84;3132534;28;20069;-67
2021/12/20 04:32:48;;;;;;;5.18;3.78;;;;;;;18.02;58.33;98847.66;3127292;28;20045;-69
2021/12/20 04:34:20;;;;;;;4.22;3.60;;;;;;;18.03;58.29;98849.34;3132291;28;20053;-69
2021/12/20 04:35:52;;;;;;;4.57;3.50;;;;;;;18.04;58.17;98844.78;3131253;28;20139;-69
2021/12/20 04:37:24;;;;;;;5.10;3.75;;;;;;;18.06;58.08;98842.75;3131233;28;20160;-69
2021/12/20 04:38:56;;;;;;;4.03;3.40;;;;;;;18.06;58.20;98840.06;3129587;28;20056;-69
2021/12/20 04:40:29;;;;;;;4.50;3.45;;;;;;;18.06;58.24;98838.22;3128957;28;20297;-68
2021/12/20 04:42:01;;;;;;;4.88;3.55;;;;;;;18.06;58.23;98837.38;3131871;28;20123;-69
2021/12/20 04:43:33;;;;;;;4.63;4.20;;;;;;;18.05;58.19;98836.56;3130284;28;20464;-68
2021/12/20 04:45:04;;;;;;;4.35;3.92;;;;;;;18.06;58.28;98842.75;3129121;28;20584;-67
2021/12/20 04:46:36;;;;;;;;;;;;;;;18.04;58.28;98834.06;3131191;28;20052;-67
2021/12/20 04:48:09;;;;;;;3.67;3.20;;;;;;;18.05;58.21;98831.19;3130306;28;20413;-67
2021/12/20 04:49:41;;;;;;;3.38;2.85;;;;;;;18.04;58.14;98829.50;3128709;28;20781;-67
2021/12/20 04:51:12;;;;;;;5.35;3.85;;;;;;;18.04;58.20;98834.88;3132177;28;20513;-66
2021/12/20 04:52:44;;;;;;;5.35;3.95;;;;;;;18.05;58.24;98824.97;3131135;28;20056;-67
2021/12/20 04:54:16;;;;;;;;;;;;;;;18.06;58.21;98838.22;3132751;28;20131;-69
2021/12/20 04:55:49;;;;;;;4.72;3.55;;;;;;;18.05;58.17;98835.72;3129715;28;23566;-68
2021/12/20 04:57:22;;;;;;;5.90;3.90;;;;;;;18.05;58.31;98831.19;3132106;28;20131;-67
2021/12/20 04:58:54;;;;;;;4.68;4.10;;;;;;;18.06;58.23;98840.06;3130780;28;20053;-69
2021/12/20 05:00:29;;;;;;;5.68;3.88;;;;;;;18.04;58.03;98832.19;3131946;28;20512;-67
2021/12/20 05:02:01;;;;;;;4.97;3.75;;;;;;;18.04;58.27;98828.69;3132631;28;20132;-67
2021/12/20 05:03:32;;;;;;;4.82;3.55;;;;;;;18.05;58.11;98835.72;3128970;28;20036;-66
2021/12/20 05:05:05;;;;;;;4.70;3.67;;;;;;;18.03;58.20;98829.72;3132685;28;20047;-68
2021/12/20 05:06:37;;;;;;;4.82;3.72;;;;;;;18.03;58.13;98827.88;3132188;28;20597;-68
2021/12/20 05:08:10;;;;;;;4.63;3.30;;;;;;;18.04;58.24;98840.25;3131557;28;20048;-67
2021/12/20 05:09:42;;;;;;;4.03;3.42;;;;;;;18.02;58.12;98834.25;3132325;28;20048;-68
2021/12/20 05:11:16;;;;;;;3.90;2.90;;;;;;;18.01;58.11;98840.66;3129318;28;20049;-68
2021/12/20 05:12:47;;;;;;;4.05;3.20;;;;;;;18.03;58.21;98833.25;3130365;28;20052;-66
2021/12/20 05:14:18;;;;;;;5.07;3.40;;;;;;;18.03;58.26;98835.91;3133053;28;20049;-68
2021/12/20 05:15:50;;;;;;;;;;;;;;;18.06;58.03;98837.38;3124625;28;20566;-66
2021/12/20 05:17:22;;;;;;;4.47;3.53;;;;;;;18.07;58.16;98839.03;3130595;28;19947;-68
2021/12/20 05:18:54;;;;;;;3.05;2.78;;;;;;;18.10;57.86;98844.00;3134095;28;20061;-68
2021/12/20 05:20:27;;;;;;;3.35;2.75;;;;;;;18.12;58.13;98844.66;3132287;28;20568;-69
2021/12/20 05:21:59;;;;;;;4.68;3.38;;;;;;;18.15;58.08;98841.56;3133510;28;20045;-67
2021/12/20 05:23:31;;;;;;;4.50;3.17;;;;;;;18.17;57.84;98844.06;3130604;28;20052;-68
2021/12/20 05:25:03;;;;;;;3.50;3.20;;;;;;;18.18;57.99;98854.59;3133267;28;20124;-68
2021/12/20 05:26:36;;;;;;;3.42;3.10;;;;;;;18.19;58.02;98850.06;3133435;28;20119;-68
2021/12/20 05:28:09;;;;;;;3.97;3.50;;;;;;;18.19;57.98;98847.38;3133631;28;20044;-67
2021/12/20 05:29:40;;;;;;;6.25;3.70;;;;;;;18.20;57.79;98849.06;3130838;28;20131;-66
2021/12/20 05:31:13;;;;;;;4.28;3.50;;;;;;;18.19;58.02;98842.00;3125556;28;20150;-67
2021/12/20 05:32:44;;;;;;;4.38;3.05;;;;;;;18.20;57.80;98849.06;3131321;28;20505;-68
2021/12/20 05:34:16;;;;;;;3.53;3.22;;;;;;;18.20;57.91;98846.38;3132878;28;20041;-67
2021/12/20 05:35:47;;;;;;;5.97;3.55;;;;;;;18.19;57.97;98839.31;3125880;28;20486;-66
2021/12/20 05:37:18;;;;;;;4.32;3.88;;;;;;;18.18;57.97;98840.34;3131652;28;20064;-67
2021/12/20 05:38:50;;;;;;;5.53;3.50;;;;;;;18.18;57.94;98837.66;3131859;28;20462;-68
2021/12/20 05:40:22;;;;;;;;;;;;;;;18.18;57.91;98845.72;3130281;28;20052;-66
2021/12/20 05:41:54;;;;;;;4.13;3.00;;;;;;;18.17;58.07;98839.53;3129125;28;19964;-67
2021/12/20 05:43:26;;;;;;;3.85;3.33;;;;;;;18.18;58.04;98840.34;3127975;28;20045;-67
2021/12/20 05:44:57;;;;;;;3.22;2.88;;;;;;;18.17;57.95;98841.41;3130215;28;20110;-68
2021/12/20 05:46:29;;;;;;;4.97;3.75;;;;;;;18.17;57.96;98841.41;3128167;28;20137;-68
2021/12/20 05:48:02;;;;;;;2.90;2.60;;;;;;;18.16;57.93;98843.22;3129640;28;20147;-68
2021/12/20 05:49:34;;;;;;;2.90;2.60;;;;;;;18.16;57.95;98837.84;3132468;28;20620;-68
2021/12/20 05:51:06;;;;;;;4.03;2.80;;;;;;;18.15;58.04;98843.44;3129458;28;20052;-68
2021/12/20 05:52:38;;;;;;;3.90;3.15;;;;;;;18.13;57.90;98843.63;3133492;28;20052;-68
2021/12/20 05:54:10;;;;;;;4.25;3.42;;;;;;;18.14;58.10;98841.78;3131748;28;20059;-68
2021/12/20 05:55:41;;;;;;;3.65;3.08;;;;;;;18.12;57.97;98835.78;3132752;28;20313;-68
2021/12/20 05:57:15;;;;;;;3.33;2.70;;;;;;;18.12;58.13;98843.84;3129745;28;20437;-67
2021/12/20 05:58:47;;;;;;;4.53;4.00;;;;;;;18.11;58.07;98842.16;3132988;28;20048;-68
2021/12/20 06:00:21;;;;;;;3.42;3.13;;;;;;;18.08;58.08;98833.50;3129099;28;20478;-67
2021/12/20 06:01:53;;;;;;;4.18;2.58;;;;;;;18.08;58.12;98840.72;3124430;28;20045;-69
2021/12/20 06:03:25;;;;;;;4.35;3.65;;;;;;;18.09;58.04;98837.81;3123854;28;20057;-67
2021/12/20 06:04:56;;;;;;;3.58;3.00;;;;;;;18.09;58.26;98837.00;3125461;28;20083;-68
2021/12/20 06:06:28;;;;;;;4.38;3.03;;;;;;;18.09;58.29;98837.00;3125893;28;20440;-67
2021/12/20 06:08:01;;;;;;;4.10;3.70;;;;;;;18.07;58.12;98834.50;3130890;28;20699;-68
2021/12/20 06:09:33;;;;;;;3.17;2.88;;;;;;;18.07;58.21;98837.19;3124917;28;20045;-69
2021/12/20 06:11:05;;;;;;;4.10;3.38;;;;;;;18.07;58.23;98839.03;3127391;28;20056;-70
2021/12/20 06:12:39;;;;;;;3.40;3.00;;;;;;;18.07;58.17;98839.03;3129322;28;20098;-68
2021/12/20 06:14:11;;;;;;;2.85;2.50;;;;;;;18.07;58.17;98833.66;3130029;28;20048;-68
2021/12/20 06:15:42;;;;;;;4.25;3.30;;;;;;;18.06;58.26;98829.34;3126389;28;22145;-67
2021/12/20 06:17:14;;;;;;;3.35;2.83;;;;;;;18.06;58.11;98832.03;3128023;28;20124;-69
2021/12/20 06:18:46;;;;;;;;;;;;;;;18.05;58.28;98836.56;3128330;28;20167;-68
2021/12/20 06:20:18;;;;;;;4.60;3.05;;;;;;;18.07;58.16;98834.50;3126476;28;20018;-69
2021/12/20 06:21:50;;;;;;;5.00;3.30;;;;;;;18.08;58.16;98836.16;3124980;28;20068;-66
2021/12/20 06:23:21;;;;;;;3.15;2.75;;;;;;;18.13;58.25;98842.78;3127223;28;20048;-67
2021/12/20 06:24:53;;;;;;;;;;;;;;;18.14;58.13;98839.09;3124329;28;20140;-67
2021/12/20 06:26:25;;;;;;;3.45;2.97;;;;;;;18.13;58.03;98842.78;3119342;28;19982;-69
2021/12/20 06:27:58;;;;;;;;;;;;;;;18.14;58.15;98847.16;3132521;28;20127;-69
2021/12/20 06:29:30;;;;;;;3.15;2.60;;;;;;;18.16;58.01;98845.09;3131207;28;19967;-67
2021/12/20 06:31:01;;;;;;;4.90;3.58;;;;;;;18.16;58.23;98840.53;3131626;28;20104;-66
2021/12/20 06:32:33;;;;;;;3.65;3.13;;;;;;;18.16;58.01;98845.09;3131367;28;20112;-69
2021/12/20 06:34:05;;;;;;;;;;;;;;;18.16;57.90;98845.91;3134187;28;20135;-68
2021/12/20 06:35:38;;;;;;;3.92;2.85;;;;;;;18.15;58.15;98846.13;3126246;28;20657;-68
2021/12/20 06:37:11;;;;;;;3.97;2.95;;;;;;;18.15;58.15;98843.44;3126062;28;20077;-68
2021/12/20 06:38:46;;;;;;;4.00;2.90;;;;;;;18.16;58.12;98847.78;3125711;28;22025;-68
2021/12/20 06:40:18;;;;;;;4.25;3.03;;;;;;;18.16;58.21;98848.59;3128465;28;20464;-71
2021/12/20 06:41:50;;;;;;;3.38;2.72;;;;;;;18.16;57.95;98850.44;3126736;28;20060;-69
2021/12/20 06:43:23;;;;;;;4.80;3.75;;;;;;;18.16;58.04;98847.78;3124754;28;20496;-67
2021/12/20 06:44:55;;;;;;;3.10;2.80;;;;;;;18.14;57.98;98845.28;3125001;28;20048;-69
2021/12/20 06:46:27;;;;;;;4.47;2.67;;;;;;;18.15;58.01;98851.50;3120222;28;20036;-68
2021/12/20 06:47:59;;;;;;;2.90;2.60;;;;;;;18.13;58.14;98858.91;3124734;28;21006;-72
2021/12/20 06:49:31;;;;;;;3.67;2.70;;;;;;;18.14;57.98;98849.84;3122358;28;20132;-74
2021/12/20 06:51:03;;;;;;;3.42;2.78;;;;;;;18.14;58.21;98855.22;3102378;28;20140;-74
2021/12/20 06:52:35;;;;;;;3.20;2.20;;;;;;;18.13;58.09;98857.03;3120364;28;20044;-73
2021/12/20 06:54:07;;;;;;;3.15;2.45;;;;;;;18.13;58.13;98856.22;3115582;28;20425;-74
2021/12/20 06:55:39;;;;;;;2.65;2.40;;;;;;;18.15;58.08;98862.22;3123778;28;20044;-74
2021/12/20 06:57:11;;;;;;;3.28;2.85;;;;;;;18.16;58.42;98861.19;3124178;28;20124;-73
2021/12/20 06:58:44;;;;;;;2.38;1.95;;;;;;;18.15;58.11;98860.38;3125344;28;21617;-74
2021/12/20 07:00:16;;;;;;;3.75;3.00;;;;;;;18.16;58.05;98863.88;3126513;28;20426;-73
2021/12/20 07:01:48;;;;;;;2.90;2.70;;;;;;;18.15;58.11;98864.91;3125223;28;20159;-74
2021/12/20 07:03:20;;;;;;;;;;;;;;;18.14;57.96;98865.94;3127146;28;20072;-74
2021/12/20 07:04:52;;;;;;;3.40;2.40;;;;;;;18.13;58.16;98867.78;3127604;28;20541;-73
2021/12/20 07:06:24;;;;;;;3.25;2.95;;;;;;;18.15;58.13;98863.06;3126652;28;20072;-72
2021/12/20 07:07:55;;;;;;;3.42;2.40;;;;;;;18.16;57.88;98861.19;3130906;28;20126;-74
2021/12/20 07:09:27;;;;;;;4.10;2.85;;;;;;;18.16;58.13;98859.34;3128415;28;20044;-72
2021/12/20 07:10:59;;;;;;;3.20;2.70;;;;;;;18.16;58.01;98862.00;3127402;28;20529;-74
2021/12/20 07:12:31;;;;;;;3.20;2.38;;;;;;;18.17;57.98;98863.69;3123102;28;20080;-73
2021/12/20 07:14:05;;;;;;;3.45;2.80;;;;;;;18.16;58.14;98856.66;3126916;28;20521;-74
2021/12/20 07:15:37;;;;;;;3.60;2.25;;;;;;;18.16;58.16;98866.56;3128126;28;20044;-74
2021/12/20 07:17:09;;;;;;;2.63;2.38;;;;;;;18.16;57.98;98869.25;3128609;28;20140;-72
2021/12/20 07:18:41;;;;;;;2.70;2.42;;;;;;;18.16;58.07;98869.25;3127594;28;20052;-74
2021/12/20 07:20:16;;;;;;;2.95;2.30;;;;;;;18.15;58.19;98859.53;3128685;28;20629;-72
2021/12/20 07:21:48;;;;;;;3.88;2.83;;;;;;;18.15;58.19;98865.75;3127654;28;20049;-72
2021/12/20 07:23:21;;;;;;;3.00;2.42;;;;;;;18.15;58.21;98859.53;3132157;28;20120;-72
2021/12/20 07:24:53;;;;;;;2.97;2.38;;;;;;;18.15;58.01;98860.38;3128693;28;20040;-74
2021/12/20 07:26:26;;;;;;;3.30;2.58;;;;;;;18.14;58.06;98861.41;3127594;28;20060;-72
2021/12/20 07:27:58;;;;;;;2.88;2.20;;;;;;;18.14;57.99;98863.25;3129845;28;20120;-73